Terminal Aerodrome Forecast
Issued by NWS Sioux Falls, SD

Home | Current Version | Previous Version | Graphics & Text | Print | Product List | Glossary On
Versions: 1 2 3 4 5 6 7 8 9 10 11 12 13 14 15 16 17
000
FTUS43 KFSD 310335 AAA
TAFFSD
TAF AMD
KFSD 310335Z 3104/3124 17013KT P6SM SCT007
      TEMPO 3104/3108 BKN007
     FM311100 17013KT 4SM BR BKN006
     FM311400 18013G18KT P6SM SKC=

USA.gov is the U.S. government's official web portal to all federal, state and local government web resources and services.